sensor_id;sensor_type;location;lat;lon;timestamp;temperature;humidity
36446;DHT22;22472;50.848;-1.216;2022-09-09T00:00:19;16.50;99.90
36446;DHT22;22472;50.848;-1.216;2022-09-09T00:02:52;16.40;99.90
36446;DHT22;22472;50.848;-1.216;2022-09-09T00:05:29;16.50;99.90
36446;DHT22;22472;50.848;-1.216;2022-09-09T00:08:02;16.40;99.90
36446;DHT22;22472;50.848;-1.216;2022-09-09T00:10:32;16.40;99.90
36446;DHT22;22472;50.848;-1.216;2022-09-09T00:13:05;16.30;99.90
36446;DHT22;22472;50.848;-1.216;2022-09-09T00:15:38;16.30;99.90
36446;DHT22;22472;50.848;-1.216;2022-09-09T00:18:14;16.30;99.90
36446;DHT22;22472;50.848;-1.216;2022-09-09T00:20:48;16.30;99.90
36446;DHT22;22472;50.848;-1.216;2022-09-09T00:23:25;16.30;99.90
36446;DHT22;22472;50.848;-1.216;2022-09-09T00:25:59;16.20;99.90
36446;DHT22;22472;50.848;-1.216;2022-09-09T00:28:32;16.20;99.90
36446;DHT22;22472;50.848;-1.216;2022-09-09T00:31:10;16.20;99.90
36446;DHT22;22472;50.848;-1.216;2022-09-09T00:33:38;16.10;99.90
36446;DHT22;22472;50.848;-1.216;2022-09-09T00:36:12;16.10;99.90
36446;DHT22;22472;50.848;-1.216;2022-09-09T00:38:46;16.10;99.90
36446;DHT22;22472;50.848;-1.216;2022-09-09T00:41:20;16.10;99.90
36446;DHT22;22472;50.848;-1.216;2022-09-09T00:43:57;16.10;99.90
36446;DHT22;22472;50.848;-1.216;2022-09-09T00:46:45;16.10;99.90
36446;DHT22;22472;50.848;-1.216;2022-09-09T00:49:22;16.10;99.90
36446;DHT22;22472;50.848;-1.216;2022-09-09T00:52:02;16.10;99.90
36446;DHT22;22472;50.848;-1.216;2022-09-09T00:54:47;16.10;99.90
36446;DHT22;22472;50.848;-1.216;2022-09-09T00:57:25;16.00;99.90
36446;DHT22;22472;50.848;-1.216;2022-09-09T00:59:58;16.10;99.90
36446;DHT22;22472;50.848;-1.216;2022-09-09T01:02:39;16.00;99.90
36446;DHT22;22472;50.848;-1.216;2022-09-09T01:05:11;16.10;99.90
36446;DHT22;22472;50.848;-1.216;2022-09-09T01:07:40;16.10;99.90
36446;DHT22;22472;50.848;-1.216;2022-09-09T01:10:21;16.20;99.90
36446;DHT22;22472;50.848;-1.216;2022-09-09T01:12:52;16.20;99.90
36446;DHT22;22472;50.848;-1.216;2022-09-09T01:15:24;16.20;99.90
36446;DHT22;22472;50.848;-1.216;2022-09-09T01:18:00;16.20;99.90
36446;DHT22;22472;50.848;-1.216;2022-09-09T01:20:33;16.30;99.90
36446;DHT22;22472;50.848;-1.216;2022-09-09T01:23:24;16.20;99.90
36446;DHT22;22472;50.848;-1.216;2022-09-09T01:28:44;16.20;99.90
36446;DHT22;22472;50.848;-1.216;2022-09-09T01:31:15;16.20;99.90
36446;DHT22;22472;50.848;-1.216;2022-09-09T01:33:43;16.30;99.90
36446;DHT22;22472;50.848;-1.216;2022-09-09T01:36:13;16.30;99.90
36446;DHT22;22472;50.848;-1.216;2022-09-09T01:38:43;16.30;99.90
36446;DHT22;22472;50.848;-1.216;2022-09-09T01:41:10;16.30;99.90
36446;DHT22;22472;50.848;-1.216;2022-09-09T01:43:37;16.30;99.90
36446;DHT22;22472;50.848;-1.216;2022-09-09T01:46:06;16.30;99.90
36446;DHT22;22472;50.848;-1.216;2022-09-09T01:48:33;16.30;99.90
36446;DHT22;22472;50.848;-1.216;2022-09-09T01:51:00;16.30;99.90
36446;DHT22;22472;50.848;-1.216;2022-09-09T01:53:27;16.40;99.90
36446;DHT22;22472;50.848;-1.216;2022-09-09T01:56:04;16.40;99.90
36446;DHT22;22472;50.848;-1.216;2022-09-09T01:58:42;16.30;99.90
36446;DHT22;22472;50.848;-1.216;2022-09-09T02:01:22;16.40;99.90
36446;DHT22;22472;50.848;-1.216;2022-09-09T02:03:53;16.30;99.90
36446;DHT22;22472;50.848;-1.216;2022-09-09T02:06:28;16.30;99.90
36446;DHT22;22472;50.848;-1.216;2022-09-09T02:08:59;16.40;99.90
36446;DHT22;22472;50.848;-1.216;2022-09-09T02:11:29;16.40;99.90
36446;DHT22;22472;50.848;-1.216;2022-09-09T02:14:00;16.40;99.90
36446;DHT22;22472;50.848;-1.216;2022-09-09T02:16:34;16.40;99.90
36446;DHT22;22472;50.848;-1.216;2022-09-09T02:19:07;16.40;99.90
36446;DHT22;22472;50.848;-1.216;2022-09-09T02:21:40;16.40;99.90
36446;DHT22;22472;50.848;-1.216;2022-09-09T02:24:08;16.40;99.90
36446;DHT22;22472;50.848;-1.216;2022-09-09T02:26:39;16.40;99.90
36446;DHT22;22472;50.848;-1.216;2022-09-09T02:29:11;16.40;99.90
36446;DHT22;22472;50.848;-1.216;2022-09-09T02:31:42;16.40;99.90
36446;DHT22;22472;50.848;-1.216;2022-09-09T02:34:11;16.40;99.90
36446;DHT22;22472;50.848;-1.216;2022-09-09T02:36:41;16.40;99.90
36446;DHT22;22472;50.848;-1.216;2022-09-09T02:39:10;16.50;99.90
36446;DHT22;22472;50.848;-1.216;2022-09-09T02:41:40;16.50;99.90
36446;DHT22;22472;50.848;-1.216;2022-09-09T02:44:10;16.40;99.90
36446;DHT22;22472;50.848;-1.216;2022-09-09T02:46:52;16.40;99.90
36446;DHT22;22472;50.848;-1.216;2022-09-09T02:59:02;16.30;99.90
36446;DHT22;22472;50.848;-1.216;2022-09-09T03:01:29;16.30;99.90
36446;DHT22;22472;50.848;-1.216;2022-09-09T03:03:58;16.30;99.90
36446;DHT22;22472;50.848;-1.216;2022-09-09T03:06:25;16.30;99.90
36446;DHT22;22472;50.848;-1.216;2022-09-09T03:08:53;16.20;99.90
36446;DHT22;22472;50.848;-1.216;2022-09-09T03:11:20;16.20;99.90
36446;DHT22;22472;50.848;-1.216;2022-09-09T03:13:47;16.20;99.90
36446;DHT22;22472;50.848;-1.216;2022-09-09T03:16:14;16.20;99.90
36446;DHT22;22472;50.848;-1.216;2022-09-09T03:18:41;16.20;99.90
36446;DHT22;22472;50.848;-1.216;2022-09-09T03:21:12;16.20;99.90
36446;DHT22;22472;50.848;-1.216;2022-09-09T03:23:39;16.20;99.90
36446;DHT22;22472;50.848;-1.216;2022-09-09T03:26:07;16.20;99.90
36446;DHT22;22472;50.848;-1.216;2022-09-09T03:28:34;16.20;99.90
36446;DHT22;22472;50.848;-1.216;2022-09-09T03:31:02;16.20;99.90
36446;DHT22;22472;50.848;-1.216;2022-09-09T03:33:29;16.20;99.90
36446;DHT22;22472;50.848;-1.216;2022-09-09T03:35:57;16.20;99.90
36446;DHT22;22472;50.848;-1.216;2022-09-09T03:38:26;16.20;99.90
36446;DHT22;22472;50.848;-1.216;2022-09-09T03:40:55;16.20;99.90
36446;DHT22;22472;50.848;-1.216;2022-09-09T03:43:23;16.20;99.90
36446;DHT22;22472;50.848;-1.216;2022-09-09T03:45:50;16.20;99.90
36446;DHT22;22472;50.848;-1.216;2022-09-09T03:48:18;16.20;99.90
36446;DHT22;22472;50.848;-1.216;2022-09-09T03:50:46;16.20;99.90
36446;DHT22;22472;50.848;-1.216;2022-09-09T03:53:14;16.20;99.90
36446;DHT22;22472;50.848;-1.216;2022-09-09T03:55:45;16.20;99.90
36446;DHT22;22472;50.848;-1.216;2022-09-09T03:58:13;16.20;99.90
36446;DHT22;22472;50.848;-1.216;2022-09-09T04:00:40;16.20;99.90
36446;DHT22;22472;50.848;-1.216;2022-09-09T04:03:08;16.20;99.90
36446;DHT22;22472;50.848;-1.216;2022-09-09T04:05:35;16.20;99.90
36446;DHT22;22472;50.848;-1.216;2022-09-09T04:08:05;16.30;99.90
36446;DHT22;22472;50.848;-1.216;2022-09-09T04:10:33;16.30;99.90
36446;DHT22;22472;50.848;-1.216;2022-09-09T04:13:03;16.20;99.90
36446;DHT22;22472;50.848;-1.216;2022-09-09T04:15:30;16.30;99.90
36446;DHT22;22472;50.848;-1.216;2022-09-09T04:17:58;16.30;99.90
36446;DHT22;22472;50.848;-1.216;2022-09-09T04:20:25;16.30;99.90
36446;DHT22;22472;50.848;-1.216;2022-09-09T04:22:51;16.30;99.90
36446;DHT22;22472;50.848;-1.216;2022-09-09T04:25:18;16.30;99.90
36446;DHT22;22472;50.848;-1.216;2022-09-09T04:27:46;16.30;99.90
36446;DHT22;22472;50.848;-1.216;2022-09-09T04:30:14;16.30;99.90
36446;DHT22;22472;50.848;-1.216;2022-09-09T04:32:41;16.20;99.90
36446;DHT22;22472;50.848;-1.216;2022-09-09T04:35:08;16.30;99.90
36446;DHT22;22472;50.848;-1.216;2022-09-09T04:37:35;16.30;99.90
36446;DHT22;22472;50.848;-1.216;2022-09-09T04:40:03;16.30;99.90
36446;DHT22;22472;50.848;-1.216;2022-09-09T04:42:30;16.30;99.90
36446;DHT22;22472;50.848;-1.216;2022-09-09T04:45:01;16.30;99.90
36446;DHT22;22472;50.848;-1.216;2022-09-09T04:47:30;16.20;99.90
36446;DHT22;22472;50.848;-1.216;2022-09-09T04:49:57;16.30;99.90
36446;DHT22;22472;50.848;-1.216;2022-09-09T04:52:23;16.30;99.90
36446;DHT22;22472;50.848;-1.216;2022-09-09T04:54:50;16.30;99.90
36446;DHT22;22472;50.848;-1.216;2022-09-09T04:57:19;16.30;99.90
36446;DHT22;22472;50.848;-1.216;2022-09-09T04:59:50;16.30;99.90
36446;DHT22;22472;50.848;-1.216;2022-09-09T06:20:07;16.50;99.90
36446;DHT22;22472;50.848;-1.216;2022-09-09T06:22:34;16.50;99.90
36446;DHT22;22472;50.848;-1.216;2022-09-09T06:25:01;16.50;99.90
36446;DHT22;22472;50.848;-1.216;2022-09-09T06:27:28;16.50;99.90
36446;DHT22;22472;50.848;-1.216;2022-09-09T06:29:55;16.50;99.90
36446;DHT22;22472;50.848;-1.216;2022-09-09T06:32:22;16.40;99.90
36446;DHT22;22472;50.848;-1.216;2022-09-09T06:34:49;16.40;99.90
36446;DHT22;22472;50.848;-1.216;2022-09-09T06:37:18;16.50;99.90
36446;DHT22;22472;50.848;-1.216;2022-09-09T06:39:46;16.50;99.90
36446;DHT22;22472;50.848;-1.216;2022-09-09T06:42:13;16.50;99.90
36446;DHT22;22472;50.848;-1.216;2022-09-09T06:44:41;16.50;99.90
36446;DHT22;22472;50.848;-1.216;2022-09-09T06:47:08;16.60;99.90
36446;DHT22;22472;50.848;-1.216;2022-09-09T06:49:35;16.60;99.90
36446;DHT22;22472;50.848;-1.216;2022-09-09T06:52:02;16.70;99.90
36446;DHT22;22472;50.848;-1.216;2022-09-09T06:54:30;16.70;99.90
36446;DHT22;22472;50.848;-1.216;2022-09-09T06:56:57;16.70;99.90
36446;DHT22;22472;50.848;-1.216;2022-09-09T06:59:26;16.80;99.90
36446;DHT22;22472;50.848;-1.216;2022-09-09T07:01:53;16.80;99.90
36446;DHT22;22472;50.848;-1.216;2022-09-09T07:04:20;16.80;99.90
36446;DHT22;22472;50.848;-1.216;2022-09-09T07:06:47;16.70;99.90
36446;DHT22;22472;50.848;-1.216;2022-09-09T07:09:15;16.60;99.90
36446;DHT22;22472;50.848;-1.216;2022-09-09T07:11:46;16.70;99.90
36446;DHT22;22472;50.848;-1.216;2022-09-09T07:14:14;16.60;99.90
36446;DHT22;22472;50.848;-1.216;2022-09-09T07:16:42;16.50;99.90
36446;DHT22;22472;50.848;-1.216;2022-09-09T07:19:09;16.60;99.90
36446;DHT22;22472;50.848;-1.216;2022-09-09T07:21:36;16.60;99.90
36446;DHT22;22472;50.848;-1.216;2022-09-09T07:24:03;16.60;99.90
36446;DHT22;22472;50.848;-1.216;2022-09-09T07:26:33;16.60;99.90
36446;DHT22;22472;50.848;-1.216;2022-09-09T07:29:02;16.80;99.90
36446;DHT22;22472;50.848;-1.216;2022-09-09T07:31:30;16.90;99.90
36446;DHT22;22472;50.848;-1.216;2022-09-09T07:33:58;17.10;99.90
36446;DHT22;22472;50.848;-1.216;2022-09-09T07:36:28;17.00;99.90
36446;DHT22;22472;50.848;-1.216;2022-09-09T07:38:56;16.80;99.90
36446;DHT22;22472;50.848;-1.216;2022-09-09T07:41:26;16.70;99.90
36446;DHT22;22472;50.848;-1.216;2022-09-09T07:43:54;16.70;99.90
36446;DHT22;22472;50.848;-1.216;2022-09-09T07:46:25;16.70;99.90
36446;DHT22;22472;50.848;-1.216;2022-09-09T07:48:54;16.70;99.90
36446;DHT22;22472;50.848;-1.216;2022-09-09T07:51:23;16.70;99.90
36446;DHT22;22472;50.848;-1.216;2022-09-09T08:34:33;18.80;99.90
36446;DHT22;22472;50.848;-1.216;2022-09-09T08:50:31;19.00;99.90
36446;DHT22;22472;50.848;-1.216;2022-09-09T08:53:04;19.20;99.90
36446;DHT22;22472;50.848;-1.216;2022-09-09T08:55:40;19.60;99.90
36446;DHT22;22472;50.848;-1.216;2022-09-09T08:58:14;19.70;99.90
36446;DHT22;22472;50.848;-1.216;2022-09-09T09:17:18;20.40;99.90
36446;DHT22;22472;50.848;-1.216;2022-09-09T09:26:55;20.50;99.90
36446;DHT22;22472;50.848;-1.216;2022-09-09T09:31:59;20.60;99.90
36446;DHT22;22472;50.848;-1.216;2022-09-09T09:57:26;20.90;99.90
36446;DHT22;22472;50.848;-1.216;2022-09-09T10:00:03;21.00;99.90
36446;DHT22;22472;50.848;-1.216;2022-09-09T10:25:34;20.70;99.90
36446;DHT22;22472;50.848;-1.216;2022-09-09T11:02:14;20.60;99.90
36446;DHT22;22472;50.848;-1.216;2022-09-09T11:14:53;20.20;99.90
36446;DHT22;22472;50.848;-1.216;2022-09-09T11:18:04;20.20;99.90
36446;DHT22;22472;50.848;-1.216;2022-09-09T11:20:32;19.80;99.90
36446;DHT22;22472;50.848;-1.216;2022-09-09T11:23:03;19.80;99.90
36446;DHT22;22472;50.848;-1.216;2022-09-09T11:25:34;19.80;99.90
36446;DHT22;22472;50.848;-1.216;2022-09-09T12:01:55;20.40;99.90
36446;DHT22;22472;50.848;-1.216;2022-09-09T12:18:15;20.70;99.90
36446;DHT22;22472;50.848;-1.216;2022-09-09T12:27:40;20.90;99.90
36446;DHT22;22472;50.848;-1.216;2022-09-09T12:30:14;21.20;99.90
36446;DHT22;22472;50.848;-1.216;2022-09-09T12:32:42;21.30;99.90
36446;DHT22;22472;50.848;-1.216;2022-09-09T12:35:13;21.20;99.90
36446;DHT22;22472;50.848;-1.216;2022-09-09T17:58:18;21.00;99.90
36446;DHT22;22472;50.848;-1.216;2022-09-09T18:07:30;19.80;99.90
36446;DHT22;22472;50.848;-1.216;2022-09-09T18:26:25;18.90;99.90
36446;DHT22;22472;50.848;-1.216;2022-09-09T19:22:55;17.60;99.90
36446;DHT22;22472;50.848;-1.216;2022-09-09T19:25:22;17.60;99.90
36446;DHT22;22472;50.848;-1.216;2022-09-09T19:27:49;17.60;99.90
36446;DHT22;22472;50.848;-1.216;2022-09-09T19:30:16;17.60;99.90
36446;DHT22;22472;50.848;-1.216;2022-09-09T19:32:43;17.60;99.90
36446;DHT22;22472;50.848;-1.216;2022-09-09T19:35:10;17.60;99.90
36446;DHT22;22472;50.848;-1.216;2022-09-09T20:52:09;16.80;99.90
36446;DHT22;22472;50.848;-1.216;2022-09-09T21:04:44;16.80;99.90
36446;DHT22;22472;50.848;-1.216;2022-09-09T21:07:13;16.80;99.90
36446;DHT22;22472;50.848;-1.216;2022-09-09T21:09:40;16.80;99.90
36446;DHT22;22472;50.848;-1.216;2022-09-09T21:12:07;16.80;99.90
36446;DHT22;22472;50.848;-1.216;2022-09-09T22:37:40;16.70;99.90
36446;DHT22;22472;50.848;-1.216;2022-09-09T22:40:07;16.70;99.90
36446;DHT22;22472;50.848;-1.216;2022-09-09T22:42:35;16.70;99.90
36446;DHT22;22472;50.848;-1.216;2022-09-09T22:45:02;16.70;99.90
36446;DHT22;22472;50.848;-1.216;2022-09-09T22:47:29;16.70;99.90
36446;DHT22;22472;50.848;-1.216;2022-09-09T22:49:56;16.70;99.90
36446;DHT22;22472;50.848;-1.216;2022-09-09T22:52:23;16.70;99.90
36446;DHT22;22472;50.848;-1.216;2022-09-09T22:54:52;16.80;99.90
36446;DHT22;22472;50.848;-1.216;2022-09-09T22:57:19;16.70;99.90
36446;DHT22;22472;50.848;-1.216;2022-09-09T23:05:52;16.70;99.90
36446;DHT22;22472;50.848;-1.216;2022-09-09T23:48:46;16.60;99.90
